Time;durP1;ratioP1;P1;durP2;ratioP2;P2;SDS_P1;SDS_P2;PMS_P1;PMS_P2;Temp;Humidity;BMP_temperature;BMP_pressure;BME280_temperature;BME280_humidity;BME280_pressure;Samples;Min_cycle;Max_cycle;Signal;HPM_P1;HPM_P2
2021/04/05 00:00:29;;;;;;;24.70;17.57;;;8.80;99.90;;;;;;1805966;77;21071;-67
2021/04/05 00:02:57;;;;;;;25.17;17.73;;;8.90;99.90;;;;;;1812362;77;21112;-68
2021/04/05 00:05:30;;;;;;;25.65;17.12;;;8.90;99.90;;;;;;1802274;78;21161;-68
2021/04/05 00:07:58;;;;;;;26.42;17.60;;;8.80;99.90;;;;;;1808622;77;21060;-67
2021/04/05 00:10:35;;;;;;;27.27;16.57;;;8.70;99.90;;;;;;1803961;77;21060;-66
2021/04/05 00:13:05;;;;;;;30.95;17.62;;;8.80;99.90;;;;;;1805520;77;21035;-67
2021/04/05 00:15:33;;;;;;;28.20;17.17;;;8.70;99.90;;;;;;1804512;77;21145;-68
2021/04/05 00:18:00;;;;;;;31.52;16.95;;;8.70;99.90;;;;;;1803069;77;21054;-67
2021/04/05 00:20:31;;;;;;;23.42;15.38;;;8.70;99.90;;;;;;1801688;77;21678;-67
2021/04/05 00:22:59;;;;;;;31.62;17.40;;;8.60;99.90;;;;;;1799008;78;21113;-67
2021/04/05 00:25:27;;;;;;;26.00;15.85;;;8.50;99.90;;;;;;1797768;77;21553;-67
2021/04/05 00:27:55;;;;;;;27.35;16.23;;;8.50;99.90;;;;;;1807092;77;21169;-67
2021/04/05 00:30:28;;;;;;;26.12;15.38;;;8.70;99.90;;;;;;1802763;77;21044;-68
2021/04/05 00:32:55;;;;;;;23.42;15.55;;;8.70;99.90;;;;;;1802159;77;21129;-68
2021/04/05 00:35:26;;;;;;;22.77;15.13;;;8.80;99.90;;;;;;1804711;77;21904;-67
2021/04/05 00:37:54;;;;;;;24.80;14.55;;;8.70;99.90;;;;;;1803388;77;21118;-67
2021/04/05 00:40:24;;;;;;;26.27;15.63;;;8.70;99.90;;;;;;1802711;77;21118;-68
2021/04/05 00:42:52;;;;;;;22.90;14.33;;;8.70;99.90;;;;;;1810362;77;21086;-67
2021/04/05 00:45:20;;;;;;;21.02;14.33;;;8.60;99.90;;;;;;1804839;77;21165;-69
2021/04/05 00:47:50;;;;;;;25.68;14.40;;;8.70;99.90;;;;;;1801029;78;22255;-69
2021/04/05 00:50:21;;;;;;;30.52;14.58;;;8.80;99.90;;;;;;1801836;77;22245;-69
2021/04/05 00:52:53;;;;;;;24.77;13.98;;;8.90;99.90;;;;;;1800720;78;21232;-68
2021/04/05 00:55:21;;;;;;;21.90;13.78;;;9.00;99.90;;;;;;1798402;77;21576;-67
2021/04/05 00:57:49;;;;;;;22.02;14.18;;;9.00;99.90;;;;;;1803175;77;21556;-67
2021/04/05 01:00:23;;;;;;;24.98;13.85;;;9.00;99.90;;;;;;1801528;78;21113;-67
2021/04/05 01:02:50;;;;;;;23.42;12.53;;;8.90;99.90;;;;;;1800702;77;21087;-68
2021/04/05 01:05:18;;;;;;;20.97;12.95;;;8.90;99.90;;;;;;1802526;78;21123;-68
2021/04/05 01:07:45;;;;;;;21.60;13.03;;;8.80;99.90;;;;;;1797722;77;21670;-67
2021/04/05 01:10:13;;;;;;;23.83;12.88;;;8.90;99.90;;;;;;1802905;77;21137;-67
2021/04/05 01:12:41;;;;;;;21.05;12.95;;;8.90;99.90;;;;;;1803142;77;22172;-68
2021/04/05 01:15:11;;;;;;;21.12;12.43;;;8.90;99.90;;;;;;1800320;77;21169;-67
2021/04/05 01:17:39;;;;;;;24.45;12.78;;;8.90;99.90;;;;;;1808930;77;21031;-68
2021/04/05 01:20:12;;;;;;;22.42;12.93;;;9.00;99.90;;;;;;1801105;77;21545;-68
2021/04/05 01:22:41;;;;;;;24.15;12.35;;;8.80;99.90;;;;;;1799063;77;21189;-68
2021/04/05 01:25:11;;;;;;;21.70;12.10;;;8.80;99.90;;;;;;1807617;77;21089;-67
2021/04/05 01:27:40;;;;;;;31.02;13.90;;;8.90;99.90;;;;;;1800749;77;21141;-67
2021/04/05 01:30:27;;;;;;;27.90;13.62;;;8.80;99.90;;;;;;1808127;77;21498;-68
2021/04/05 01:32:43;;;;;;;26.93;14.10;;;8.80;99.90;;;;;;1803485;77;21080;-68
2021/04/05 01:35:11;;;;;;;25.77;13.32;;;8.80;99.90;;;;;;1805072;77;21096;-68
2021/04/05 01:37:38;;;;;;;24.45;12.78;;;8.70;99.90;;;;;;1801639;77;21115;-67
2021/04/05 01:40:07;;;;;;;29.55;13.90;;;8.80;99.90;;;;;;1802615;77;21157;-68
2021/04/05 01:42:34;;;;;;;23.70;12.75;;;9.00;99.90;;;;;;1804858;77;21470;-68
2021/04/05 01:45:02;;;;;;;24.27;13.88;;;9.00;99.90;;;;;;1801728;77;21162;-68
2021/04/05 01:47:29;;;;;;;27.17;12.47;;;9.00;99.90;;;;;;1804789;77;21191;-68
2021/04/05 01:49:57;;;;;;;26.90;13.28;;;9.00;99.90;;;;;;1804592;77;21142;-67
2021/04/05 01:52:24;;;;;;;25.95;12.93;;;9.10;99.90;;;;;;1802323;77;21192;-68
2021/04/05 01:54:52;;;;;;;26.10;13.95;;;9.10;99.90;;;;;;1801995;77;21082;-67
2021/04/05 01:57:19;;;;;;;21.62;13.70;;;9.10;99.90;;;;;;1803277;77;21684;-67
2021/04/05 01:59:47;;;;;;;24.52;13.72;;;9.00;99.90;;;;;;1804074;77;21110;-67
2021/04/05 02:02:14;;;;;;;27.70;13.78;;;8.90;99.90;;;;;;1802925;77;21133;-68
2021/04/05 02:04:42;;;;;;;25.43;14.03;;;8.80;99.90;;;;;;1805757;77;21173;-67
2021/04/05 02:07:09;;;;;;;23.85;13.05;;;8.90;99.90;;;;;;1802239;78;21231;-67
2021/04/05 02:09:37;;;;;;;26.10;13.62;;;9.10;99.90;;;;;;1804573;77;21197;-68
2021/04/05 02:12:05;;;;;;;30.02;14.33;;;9.20;99.90;;;;;;1800449;77;21369;-69
2021/04/05 02:14:34;;;;;;;27.65;14.25;;;9.20;99.90;;;;;;1802667;77;21125;-67
2021/04/05 02:17:01;;;;;;;28.70;14.13;;;9.10;99.90;;;;;;1800100;78;21237;-67
2021/04/05 02:19:29;;;;;;;27.40;14.25;;;9.20;99.90;;;;;;1806669;77;21380;-68
2021/04/05 02:21:57;;;;;;;30.62;15.00;;;9.30;99.90;;;;;;1799191;78;21721;-68
2021/04/05 02:24:25;;;;;;;30.20;14.75;;;9.30;99.90;;;;;;1799183;77;21083;-68
2021/04/05 02:26:54;;;;;;;28.77;14.65;;;9.10;99.90;;;;;;1805845;77;21040;-67
2021/04/05 02:29:22;;;;;;;24.80;14.23;;;9.00;99.90;;;;;;1800128;78;21559;-67
2021/04/05 02:31:51;;;;;;;29.60;14.60;;;9.10;99.90;;;;;;1807405;77;21599;-68
2021/04/05 02:34:18;;;;;;;29.90;15.23;;;9.00;99.90;;;;;;1800728;77;21273;-67
2021/04/05 02:36:46;;;;;;;27.42;14.63;;;9.10;99.90;;;;;;1863553;74;21244;-70
2021/04/05 02:39:13;;;;;;;32.05;15.32;;;9.20;99.90;;;;;;1883659;75;21084;-70
2021/04/05 02:41:43;;;;;;;31.30;14.98;;;9.20;99.90;;;;;;1878419;76;21091;-71
2021/04/05 02:44:11;;;;;;;30.15;15.43;;;9.20;99.90;;;;;;1883118;76;21121;-71
2021/04/05 02:46:40;;;;;;;33.73;14.85;;;9.10;99.90;;;;;;1884641;75;21075;-72
2021/04/05 02:49:13;;;;;;;33.25;16.12;;;9.20;99.90;;;;;;1878506;75;21031;-72
2021/04/05 02:51:45;;;;;;;29.75;15.48;;;9.20;99.90;;;;;;1879402;75;21063;-72
2021/04/05 02:54:14;;;;;;;31.23;16.40;;;9.20;99.90;;;;;;1884899;74;21042;-70
2021/04/05 02:56:43;;;;;;;38.10;17.20;;;9.30;99.90;;;;;;1881888;76;21079;-70
2021/04/05 02:59:11;;;;;;;36.98;15.78;;;9.10;99.90;;;;;;1882833;76;21009;-71
2021/04/05 03:01:40;;;;;;;39.95;17.27;;;9.00;99.90;;;;;;1878674;76;21039;-70
2021/04/05 03:04:09;;;;;;;37.42;16.67;;;9.00;99.90;;;;;;1882727;76;21158;-71
2021/04/05 03:06:37;;;;;;;39.00;16.52;;;9.10;99.90;;;;;;1879483;76;21123;-70
2021/04/05 03:09:06;;;;;;;43.85;16.75;;;9.20;99.90;;;;;;1881398;76;21091;-71
2021/04/05 03:11:37;;;;;;;34.80;15.93;;;9.20;99.90;;;;;;1877589;75;21313;-70
2021/04/05 03:14:08;;;;;;;28.00;15.03;;;9.30;99.90;;;;;;1879518;75;21277;-70
2021/04/05 03:16:38;;;;;;;32.58;16.12;;;9.40;99.90;;;;;;1881012;74;21156;-71
2021/04/05 03:19:07;;;;;;;33.40;16.62;;;9.40;99.90;;;;;;1879264;74;21114;-70
2021/04/05 03:21:35;;;;;;;40.98;16.75;;;9.40;99.90;;;;;;1886077;74;22132;-70
2021/04/05 03:24:03;;;;;;;36.40;16.48;;;9.40;99.90;;;;;;1879981;76;21092;-71
2021/04/05 03:26:30;;;;;;;31.00;15.68;;;9.30;99.90;;;;;;1878824;76;21131;-71
2021/04/05 03:28:58;;;;;;;39.05;16.93;;;9.40;99.90;;;;;;1883554;76;21165;-70
2021/04/05 03:31:28;;;;;;;40.15;15.95;;;9.50;99.90;;;;;;1882769;75;21401;-70
2021/04/05 03:34:15;;;;;;;38.88;16.55;;;9.50;99.90;;;;;;1888437;74;21147;-70
2021/04/05 03:36:49;;;;;;;40.70;17.48;;;9.60;99.90;;;;;;1883899;74;21130;-70
2021/04/05 03:39:17;;;;;;;50.48;17.50;;;9.70;99.90;;;;;;1876479;76;21619;-70
2021/04/05 03:42:12;;;;;;;35.05;17.40;;;9.60;99.90;;;;;;1884864;75;21098;-70
2021/04/05 03:44:58;;;;;;;40.48;16.57;;;9.60;99.90;;;;;;1880650;75;21047;-70
2021/04/05 03:47:31;;;;;;;36.83;16.17;;;9.60;99.90;;;;;;1881927;75;21166;-70
2021/04/05 03:50:20;;;;;;;37.55;17.45;;;9.50;99.90;;;;;;1878075;76;21103;-70
2021/04/05 03:52:53;;;;;;;38.78;17.27;;;9.60;99.90;;;;;;1848962;76;21056;-70
2021/04/05 03:55:24;;;;;;;40.78;17.95;;;9.40;99.90;;;;;;1860868;74;21626;-69
2021/04/05 03:57:53;;;;;;;42.10;17.82;;;9.30;99.90;;;;;;1883083;76;21121;-70
2021/04/05 04:00:22;;;;;;;42.10;17.70;;;9.40;99.90;;;;;;1883341;76;21181;-70
2021/04/05 04:02:54;;;;;;;39.05;17.20;;;9.40;99.90;;;;;;1877295;76;21114;-70
2021/04/05 04:05:41;;;;;;;34.65;16.87;;;9.40;99.90;;;;;;1886808;75;21209;-70
2021/04/05 04:08:10;;;;;;;37.70;16.80;;;9.30;99.90;;;;;;1874619;76;21162;-70
2021/04/05 04:10:34;;;;;;;36.13;16.37;;;9.30;99.90;;;;;;1883348;74;21267;-69
2021/04/05 04:13:07;;;;;;;28.95;15.83;;;9.30;99.90;;;;;;1876901;75;21133;-70
2021/04/05 04:15:36;;;;;;;32.75;16.07;;;9.20;99.90;;;;;;1884442;76;21127;-70
2021/04/05 04:18:05;;;;;;;33.48;15.28;;;9.30;99.90;;;;;;1884125;76;21144;-70
2021/04/05 04:20:34;;;;;;;38.40;16.25;;;9.10;99.90;;;;;;1883383;76;21134;-70
2021/04/05 04:23:02;;;;;;;40.33;16.45;;;9.10;99.90;;;;;;1881512;75;21032;-70
2021/04/05 04:25:29;;;;;;;28.55;15.40;;;9.20;99.90;;;;;;1886233;76;21079;-71
2021/04/05 04:27:57;;;;;;;29.80;14.83;;;9.30;99.90;;;;;;1882219;75;21066;-70
2021/04/05 04:30:31;;;;;;;30.52;15.35;;;9.20;99.90;;;;;;1880629;76;21035;-71
2021/04/05 04:33:04;;;;;;;31.20;15.00;;;9.30;99.90;;;;;;1876124;76;21038;-70
2021/04/05 04:35:33;;;;;;;30.85;14.73;;;9.40;99.90;;;;;;1879283;76;21075;-69
2021/04/05 04:38:01;;;;;;;30.97;13.62;;;9.50;99.90;;;;;;1883461;76;21117;-69
2021/04/05 04:40:31;;;;;;;34.45;14.55;;;9.60;99.90;;;;;;1886214;76;21162;-70
2021/04/05 04:43:01;;;;;;;27.10;13.35;;;9.50;99.90;;;;;;1879781;75;21270;-69
2021/04/05 04:45:29;;;;;;;22.80;11.45;;;9.50;99.90;;;;;;1884070;76;21193;-69
2021/04/05 04:47:57;;;;;;;20.10;10.93;;;9.30;99.90;;;;;;1881422;76;21087;-69
2021/04/05 04:50:26;;;;;;;22.48;10.03;;;9.40;99.90;;;;;;1876390;76;21095;-69
2021/04/05 04:52:54;;;;;;;8.15;4.33;;;9.60;99.90;;;;;;1878974;76;21173;-69
2021/04/05 04:55:23;;;;;;;7.90;2.33;;;9.60;99.90;;;;;;1882710;75;21138;-69
2021/04/05 04:57:59;;;;;;;2.83;1.25;;;9.60;99.90;;;;;;1846118;77;21193;-69
2021/04/05 05:00:28;;;;;;;2.47;0.78;;;9.60;99.90;;;;;;1882727;76;21180;-70
2021/04/05 05:02:57;;;;;;;1.12;0.57;;;9.60;99.90;;;;;;1847564;77;21234;-69
2021/04/05 05:05:27;;;;;;;0.82;0.40;;;9.50;99.90;;;;;;1882296;75;21198;-69
2021/04/05 05:07:55;;;;;;;1.57;0.55;;;9.50;99.90;;;;;;1882802;76;21208;-69
2021/04/05 05:10:25;;;;;;;3.25;0.45;;;9.50;99.90;;;;;;1888799;75;21573;-69
2021/04/05 05:12:53;;;;;;;0.98;0.50;;;9.50;99.90;;;;;;1885904;74;21184;-69
2021/04/05 05:15:23;;;;;;;1.42;0.47;;;9.50;99.90;;;;;;1845033;77;21150;-68
2021/04/05 05:17:50;;;;;;;2.27;0.45;;;9.40;99.90;;;;;;1877041;76;21067;-69
2021/04/05 05:20:19;;;;;;;0.53;0.30;;;9.40;99.90;;;;;;1849454;76;21130;-70
2021/04/05 05:22:52;;;;;;;2.75;0.60;;;9.40;99.90;;;;;;1879599;76;21357;-70
2021/04/05 05:25:22;;;;;;;3.02;0.62;;;9.30;99.90;;;;;;1878770;75;21215;-69
2021/04/05 05:27:53;;;;;;;5.83;0.80;;;9.30;99.90;;;;;;1844251;77;21541;-69
2021/04/05 05:30:21;;;;;;;2.22;0.70;;;9.30;99.90;;;;;;1881953;75;21110;-69
2021/04/05 05:32:54;;;;;;;5.30;0.98;;;9.20;99.90;;;;;;1882782;74;22105;-69
2021/04/05 05:35:23;;;;;;;7.33;0.85;;;9.20;99.90;;;;;;1884745;74;21204;-69
2021/04/05 05:37:51;;;;;;;3.75;0.90;;;9.20;99.90;;;;;;1852943;76;21723;-69
2021/04/05 05:40:26;;;;;;;4.35;1.00;;;9.20;99.90;;;;;;1843227;77;21107;-69
2021/04/05 05:43:21;;;;;;;4.12;0.90;;;9.10;99.90;;;;;;1883884;75;21245;-69
2021/04/05 05:46:10;;;;;;;6.53;1.30;;;9.10;99.90;;;;;;1878412;76;21165;-69
2021/04/05 05:48:52;;;;;;;4.08;1.10;;;9.00;99.90;;;;;;1873961;75;21150;-69
2021/04/05 05:51:42;;;;;;;7.40;1.47;;;8.90;99.90;;;;;;1874669;76;21138;-70
2021/04/05 05:54:28;;;;;;;5.95;1.10;;;8.90;99.90;;;;;;1880551;75;21626;-69
2021/04/05 05:57:16;;;;;;;4.78;1.30;;;8.90;99.90;;;;;;1883378;76;21158;-69
2021/04/05 05:59:56;;;;;;;4.78;1.17;;;8.80;99.90;;;;;;1878391;74;21239;-71
2021/04/05 06:02:55;;;;;;;4.75;1.00;;;8.80;99.90;;;;;;1880213;75;21580;-69
2021/04/05 06:05:51;;;;;;;6.47;1.00;;;8.80;99.90;;;;;;1883143;74;21725;-69
2021/04/05 06:08:41;;;;;;;6.10;1.45;;;8.70;99.90;;;;;;1885315;76;21064;-70
2021/04/05 06:11:20;;;;;;;6.47;1.15;;;8.70;99.90;;;;;;1881615;75;21091;-68
2021/04/05 06:13:51;;;;;;;4.97;1.02;;;8.70;99.90;;;;;;1879742;76;21250;-69
2021/04/05 06:16:33;;;;;;;5.72;1.20;;;8.70;99.90;;;;;;1882407;76;21213;-69
2021/04/05 06:19:13;;;;;;;5.62;1.27;;;8.60;99.90;;;;;;1851616;75;21082;-69
2021/04/05 06:21:52;;;;;;;5.33;1.17;;;8.70;99.90;;;;;;1875551;74;21931;-70
2021/04/05 06:24:45;;;;;;;4.35;1.30;;;8.70;99.90;;;;;;1885899;75;21168;-71
2021/04/05 06:27:19;;;;;;;5.53;1.20;;;8.70;99.90;;;;;;1882698;76;21075;-70
2021/04/05 06:29:55;;;;;;;7.50;1.40;;;8.60;99.90;;;;;;1867941;76;21208;-70
2021/04/05 06:32:54;;;;;;;5.97;1.32;;;8.70;99.90;;;;;;1876981;76;21236;-69
2021/04/05 06:35:46;;;;;;;6.20;1.62;;;8.60;99.90;;;;;;1889218;74;21150;-71
2021/04/05 06:38:22;;;;;;;4.78;1.40;;;8.60;99.90;;;;;;1879740;74;21555;-70
2021/04/05 06:40:51;;;;;;;7.60;1.80;;;8.60;99.90;;;;;;1866682;76;21122;-70
2021/04/05 06:43:42;;;;;;;11.10;2.37;;;8.60;99.90;;;;;;1842458;77;21139;-70
2021/04/05 06:46:46;;;;;;;10.35;2.20;;;8.60;99.90;;;;;;1873519;76;22124;-70
2021/04/05 06:49:48;;;;;;;11.18;2.25;;;8.50;99.90;;;;;;1834606;76;21244;-69
2021/04/05 06:52:41;;;;;;;12.30;1.82;;;8.50;99.90;;;;;;1874202;75;21170;-69
2021/04/05 06:55:27;;;;;;;5.20;1.22;;;8.30;99.90;;;;;;1868111;75;21193;-69
2021/04/05 06:57:59;;;;;;;5.42;0.95;;;8.20;99.90;;;;;;1866610;76;22033;-70
2021/04/05 07:00:29;;;;;;;6.78;1.50;;;8.20;99.90;;;;;;1867520;75;21597;-69
2021/04/05 07:03:19;;;;;;;7.17;1.70;;;8.20;99.90;;;;;;1865091;75;21180;-70
2021/04/05 07:06:07;;;;;;;7.08;1.50;;;8.10;99.90;;;;;;1869857;76;21208;-69
2021/04/05 07:08:43;;;;;;;11.68;2.15;;;8.10;99.90;;;;;;1866959;76;21349;-69
2021/04/05 07:11:22;;;;;;;9.93;1.80;;;8.10;99.90;;;;;;1872536;75;21683;-70
2021/04/05 07:14:14;;;;;;;11.80;2.00;;;8.10;99.90;;;;;;1880549;74;21053;-69
2021/04/05 07:16:47;;;;;;;14.50;2.33;;;8.00;99.90;;;;;;1871967;75;21186;-70
2021/04/05 07:19:33;;;;;;;11.80;2.05;;;8.00;99.90;;;;;;1875346;74;21076;-70
2021/04/05 07:22:24;;;;;;;9.13;2.10;;;7.90;99.90;;;;;;1875612;74;21177;-68
2021/04/05 07:25:11;;;;;;;8.43;1.72;;;7.90;99.90;;;;;;1877355;74;21616;-68
2021/04/05 07:28:03;;;;;;;10.75;2.02;;;7.90;99.90;;;;;;1874675;74;21145;-69
2021/04/05 07:30:44;;;;;;;8.28;1.65;;;7.90;99.90;;;;;;1846255;75;21115;-69
2021/04/05 07:33:36;;;;;;;9.05;2.20;;;7.90;99.90;;;;;;1876289;74;21263;-69
2021/04/05 07:36:37;;;;;;;7.40;1.62;;;7.90;99.90;;;;;;1870255;75;21127;-69
2021/04/05 07:39:13;;;;;;;13.05;2.08;;;8.00;99.90;;;;;;1871181;75;21189;-71
2021/04/05 07:41:46;;;;;;;12.07;2.20;;;7.90;99.90;;;;;;1866756;76;21440;-68
2021/04/05 07:44:32;;;;;;;13.40;2.55;;;8.00;99.90;;;;;;1874628;74;21114;-69
2021/04/05 07:47:19;;;;;;;11.40;2.42;;;8.10;99.90;;;;;;1874370;75;21115;-69
2021/04/05 07:50:17;;;;;;;12.90;2.80;;;8.10;99.90;;;;;;1869010;76;21083;-69
2021/04/05 07:52:47;;;;;;;15.65;2.83;;;8.20;99.90;;;;;;1874025;76;22188;-70
2021/04/05 07:55:16;;;;;;;13.15;2.58;;;8.20;99.90;;;;;;1871939;76;21131;-71
2021/04/05 07:57:58;;;;;;;17.77;2.75;;;8.20;99.90;;;;;;1832219;77;21110;-70
2021/04/05 08:00:50;;;;;;;5.60;1.50;;;8.30;99.90;;;;;;1865691;75;21170;-69
2021/04/05 08:03:32;;;;;;;6.37;1.22;;;8.30;99.90;;;;;;1869901;76;21075;-69
2021/04/05 08:06:03;;;;;;;4.95;0.82;;;7.90;99.90;;;;;;1810211;76;21224;-69
2021/04/05 08:08:39;;;;;;;7.85;1.22;;;7.70;99.90;;;;;;1870237;74;21118;-68
2021/04/05 08:11:30;;;;;;;4.90;1.07;;;7.70;99.90;;;;;;1871304;75;22564;-68
2021/04/05 08:14:03;;;;;;;4.95;1.22;;;7.70;99.90;;;;;;1867751;76;21537;-68
2021/04/05 08:16:43;;;;;;;4.85;1.20;;;7.70;99.90;;;;;;1870835;76;21138;-68
2021/04/05 08:19:25;;;;;;;5.87;1.60;;;7.70;99.90;;;;;;1866918;76;21165;-69
2021/04/05 08:21:53;;;;;;;;;;;7.80;99.90;;;;;;1872514;76;21196;-69
2021/04/05 08:24:47;;;;;;;9.63;2.22;;;7.90;99.90;;;;;;1869719;76;20181;-69
2021/04/05 08:27:32;;;;;;;9.65;2.00;;;8.10;99.90;;;;;;1867847;76;21624;-69
2021/04/05 08:30:21;;;;;;;10.93;1.95;;;8.20;99.90;;;;;;1867423;76;21180;-69
2021/04/05 08:33:08;;;;;;;9.98;2.12;;;8.20;99.90;;;;;;1871442;76;21199;-69
2021/04/05 08:35:47;;;;;;;15.28;3.02;;;8.30;99.90;;;;;;1857615;76;21298;-68
2021/04/05 08:38:18;;;;;;;14.38;2.83;;;8.40;99.90;;;;;;1871750;76;21169;-67
2021/04/05 08:41:07;;;;;;;4.55;1.15;;;8.30;99.90;;;;;;1870083;74;21541;-68
2021/04/05 08:43:46;;;;;;;3.27;0.70;;;7.90;99.90;;;;;;1869890;75;21531;-68
2021/04/05 08:46:19;;;;;;;7.62;1.05;;;7.70;99.90;;;;;;1809961;79;21180;-68
2021/04/05 08:48:49;;;;;;;6.10;1.27;;;7.50;99.90;;;;;;1875384;75;21051;-67
2021/04/05 08:51:19;;;;;;;9.63;1.42;;;7.40;99.90;;;;;;1872134;75;21627;-68
2021/04/05 08:53:53;;;;;;;9.40;1.75;;;7.30;99.90;;;;;;1869515;75;21008;-68
2021/04/05 08:56:23;;;;;;;7.55;1.37;;;7.20;99.90;;;;;;1874288;75;21621;-68
2021/04/05 08:58:56;;;;;;;5.35;1.62;;;7.20;99.90;;;;;;1870976;76;21021;-68
2021/04/05 09:01:27;;;;;;;5.33;1.15;;;7.20;99.90;;;;;;1872600;75;21108;-69
2021/04/05 09:03:55;;;;;;;10.98;1.77;;;7.20;99.90;;;;;;1868033;76;21020;-68
2021/04/05 09:06:25;;;;;;;9.45;1.72;;;7.20;99.90;;;;;;1833862;76;21056;-68
2021/04/05 09:08:55;;;;;;;9.23;1.82;;;7.20;99.90;;;;;;1869624;76;21393;-68
2021/04/05 09:11:25;;;;;;;7.67;1.62;;;7.30;99.90;;;;;;1830488;77;21109;-67
2021/04/05 09:13:58;;;;;;;5.90;1.22;;;7.30;99.90;;;;;;1871092;76;21083;-69
2021/04/05 09:16:29;;;;;;;9.50;1.85;;;7.30;99.90;;;;;;1830945;77;21194;-68
2021/04/05 09:19:33;;;;;;;8.28;1.80;;;7.30;99.90;;;;;;1873922;75;21181;-68
2021/04/05 09:22:04;;;;;;;9.15;1.95;;;7.40;99.90;;;;;;1836571;76;21111;-69
2021/04/05 09:25:06;;;;;;;10.48;2.12;;;7.50;99.90;;;;;;1869059;75;21138;-69
2021/04/05 09:27:59;;;;;;;9.88;2.20;;;7.60;99.90;;;;;;1872926;76;21868;-69
2021/04/05 09:31:03;;;;;;;13.80;2.12;;;7.90;99.90;;;;;;1877644;74;21052;-69
2021/04/05 09:33:42;;;;;;;10.23;2.20;;;7.90;99.90;;;;;;1875340;75;21119;-68
2021/04/05 09:36:45;;;;;;;17.07;2.90;;;8.00;99.60;;;;;;1870291;76;22267;-68
2021/04/05 09:39:45;;;;;;;15.48;3.08;;;8.00;98.30;;;;;;1871923;76;21127;-68
2021/04/05 09:42:19;;;;;;;17.70;3.40;;;8.00;97.30;;;;;;1867600;76;21944;-68
2021/04/05 09:44:55;;;;;;;12.80;2.45;;;8.00;97.10;;;;;;1877450;74;21064;-69
2021/04/05 09:47:37;;;;;;;14.05;2.87;;;8.00;95.60;;;;;;1873580;75;21123;-69
2021/04/05 09:50:20;;;;;;;17.27;2.75;;;8.00;95.50;;;;;;1879678;74;21083;-71
2021/04/05 09:53:15;;;;;;;16.52;3.40;;;7.90;96.50;;;;;;1877163;75;21204;-69
2021/04/05 09:55:45;;;;;;;13.10;3.02;;;7.90;97.30;;;;;;1872733;76;21205;-67
2021/04/05 09:58:25;;;;;;;17.17;2.67;;;8.00;96.50;;;;;;1866542;76;21101;-68
2021/04/05 10:01:01;;;;;;;16.35;2.47;;;8.00;96.70;;;;;;1827495;76;21168;-68
2021/04/05 10:03:29;;;;;;;10.58;2.00;;;7.90;97.30;;;;;;1870873;76;21152;-68
2021/04/05 10:05:59;;;;;;;8.88;1.80;;;7.80;96.90;;;;;;1838731;77;21570;-68
2021/04/05 10:08:28;;;;;;;7.70;1.90;;;7.70;97.10;;;;;;1833312;77;21143;-69
2021/04/05 10:10:57;;;;;;;16.35;2.67;;;7.60;97.70;;;;;;1837110;77;21133;-69
2021/04/05 10:13:27;;;;;;;14.50;2.33;;;7.60;97.50;;;;;;1833279;77;21409;-69
2021/04/05 10:15:58;;;;;;;15.40;2.58;;;7.60;97.50;;;;;;1871399;76;21229;-69
2021/04/05 10:18:27;;;;;;;11.35;2.35;;;7.60;96.90;;;;;;1836412;77;21175;-68
2021/04/05 10:20:55;;;;;;;10.80;2.02;;;7.80;95.80;;;;;;1833420;77;21524;-68
2021/04/05 10:23:25;;;;;;;12.40;2.37;;;7.90;95.40;;;;;;1833414;77;21119;-69
2021/04/05 10:26:00;;;;;;;7.20;2.22;;;8.10;95.90;;;;;;1832867;77;21080;-68
2021/04/05 10:28:33;;;;;;;11.15;2.62;;;8.30;95.20;;;;;;1871071;76;21094;-68
2021/04/05 10:31:05;;;;;;;12.43;2.20;;;8.50;93.10;;;;;;1872005;76;21585;-69
2021/04/05 10:33:38;;;;;;;10.75;2.15;;;8.60;92.50;;;;;;1831382;76;21026;-68
2021/04/05 10:36:11;;;;;;;9.35;2.20;;;8.80;91.60;;;;;;1874033;75;21554;-68
2021/04/05 10:38:40;;;;;;;10.68;2.25;;;8.90;91.90;;;;;;1871445;76;21553;-68
2021/04/05 10:41:10;;;;;;;13.22;2.15;;;9.10;90.50;;;;;;1870342;76;21100;-70
2021/04/05 10:43:43;;;;;;;12.07;2.10;;;9.40;88.30;;;;;;1872947;74;21095;-68
2021/04/05 10:46:19;;;;;;;10.00;2.12;;;9.40;85.90;;;;;;1868859;76;21134;-68
2021/04/05 10:49:01;;;;;;;18.92;2.90;;;9.50;85.30;;;;;;1874625;76;21627;-68
2021/04/05 10:51:46;;;;;;;13.72;2.87;;;9.60;85.10;;;;;;1867592;76;21099;-68
2021/04/05 10:54:35;;;;;;;11.43;2.40;;;9.70;83.20;;;;;;1869295;76;21111;-68
2021/04/05 10:57:05;;;;;;;9.98;2.50;;;9.70;84.00;;;;;;1856764;76;21137;-70
2021/04/05 10:59:53;;;;;;;11.30;2.52;;;9.80;82.60;;;;;;1869868;76;21091;-69
2021/04/05 11:02:44;;;;;;;11.57;2.10;;;9.60;80.90;;;;;;1828868;77;21131;-67
2021/04/05 11:05:13;;;;;;;9.88;2.27;;;9.50;82.00;;;;;;1870334;76;21525;-69
2021/04/05 11:07:44;;;;;;;10.32;1.92;;;9.40;82.40;;;;;;1833677;77;21355;-68
2021/04/05 11:10:20;;;;;;;15.38;2.20;;;9.30;83.50;;;;;;1872198;76;21115;-69
2021/04/05 11:12:50;;;;;;;10.18;1.98;;;9.20;81.30;;;;;;1869046;76;21263;-68
2021/04/05 11:15:23;;;;;;;5.83;1.70;;;9.10;78.80;;;;;;1872867;75;21123;-68
2021/04/05 11:17:53;;;;;;;8.20;2.10;;;9.00;79.30;;;;;;1831997;77;21134;-67
2021/04/05 11:20:24;;;;;;;7.60;1.80;;;9.30;79.00;;;;;;1870212;76;21150;-68
2021/04/05 11:23:00;;;;;;;13.32;2.45;;;9.40;79.50;;;;;;1866668;76;21134;-67
2021/04/05 11:25:42;;;;;;;16.50;1.70;;;9.40;75.30;;;;;;1870407;76;21115;-68
2021/04/05 11:28:23;;;;;;;9.10;1.55;;;9.40;76.20;;;;;;1873946;75;21127;-69
2021/04/05 11:30:52;;;;;;;7.80;1.87;;;9.40;78.40;;;;;;1874490;75;21115;-69
2021/04/05 11:33:26;;;;;;;12.80;1.90;;;9.40;79.50;;;;;;1869728;76;21222;-68
2021/04/05 11:35:55;;;;;;;9.15;2.42;;;9.60;80.60;;;;;;1877348;75;21104;-68
2021/04/05 11:38:23;;;;;;;7.15;2.00;;;9.70;80.40;;;;;;1871969;76;21083;-69
2021/04/05 11:40:59;;;;;;;7.03;1.67;;;10.00;77.80;;;;;;1836793;76;21123;-69
2021/04/05 11:43:30;;;;;;;6.92;1.50;;;10.10;77.70;;;;;;1872757;76;21557;-69
2021/04/05 11:46:04;;;;;;;4.08;1.22;;;10.20;75.50;;;;;;1876337;76;21115;-67
2021/04/05 11:48:31;;;;;;;9.05;1.70;;;10.30;75.70;;;;;;1876962;75;21837;-67
2021/04/05 11:50:59;;;;;;;9.40;1.65;;;10.40;75.20;;;;;;1873369;76;22401;-69
2021/04/05 11:53:59;;;;;;;6.30;1.77;;;10.40;76.00;;;;;;1876674;75;21714;-69
2021/04/05 11:56:29;;;;;;;7.87;1.80;;;10.60;75.70;;;;;;1875058;75;21652;-67
2021/04/05 11:59:02;;;;;;;7.87;1.40;;;10.80;73.10;;;;;;1839481;76;21138;-67
2021/04/05 12:01:39;;;;;;;7.55;1.80;;;11.10;74.30;;;;;;1842149;76;21103;-68
2021/04/05 12:04:21;;;;;;;13.58;1.50;;;11.30;74.50;;;;;;1868743;74;21044;-68
2021/04/05 12:06:50;;;;;;;;;;;11.80;71.70;;;;;;1878528;74;21158;-68
2021/04/05 12:09:23;;;;;;;12.95;1.80;;;11.90;72.00;;;;;;1872517;75;20128;-68
2021/04/05 12:12:02;;;;;;;5.85;1.65;;;12.30;68.20;;;;;;1871923;75;21173;-68
2021/04/05 12:14:27;;;;;;;11.05;2.05;;;12.70;68.90;;;;;;1875857;75;21597;-69
2021/04/05 12:16:57;;;;;;;13.75;1.67;;;12.60;63.70;;;;;;1873985;75;21145;-70
2021/04/05 12:19:33;;;;;;;5.47;1.02;;;12.20;65.00;;;;;;1841232;76;21480;-68
2021/04/05 12:22:03;;;;;;;7.85;1.30;;;12.10;64.50;;;;;;1872392;75;21009;-68
2021/04/05 12:24:33;;;;;;;7.95;1.50;;;11.90;66.70;;;;;;1876546;74;21104;-68
2021/04/05 12:27:04;;;;;;;7.75;1.47;;;11.90;67.40;;;;;;1876571;74;21142;-70
2021/04/05 12:29:34;;;;;;;7.33;1.12;;;11.60;67.10;;;;;;1874718;75;21781;-68
2021/04/05 12:32:03;;;;;;;4.37;0.98;;;11.30;71.00;;;;;;1877231;75;21151;-69
2021/04/05 12:34:36;;;;;;;4.22;1.12;;;11.00;72.80;;;;;;1876892;74;21087;-69
2021/04/05 12:37:15;;;;;;;4.92;0.88;;;10.90;74.30;;;;;;1873221;74;21240;-68
2021/04/05 12:39:45;;;;;;;2.20;0.65;;;11.10;74.70;;;;;;1871452;75;21590;-68
2021/04/05 12:42:14;;;;;;;4.40;1.40;;;11.00;71.60;;;;;;1875646;74;21808;-68
2021/04/05 12:44:46;;;;;;;4.78;0.95;;;10.60;65.50;;;;;;1875412;74;21244;-69
2021/04/05 12:47:14;;;;;;;;;;;10.30;64.40;;;;;;1876419;75;21209;-68
2021/04/05 12:49:46;;;;;;;5.17;1.40;;;10.10;63.70;;;;;;1875481;75;20213;-71
2021/04/05 12:52:19;;;;;;;5.53;1.47;;;9.90;63.50;;;;;;1873072;75;21133;-69
2021/04/05 12:54:52;;;;;;;6.90;1.42;;;9.80;65.20;;;;;;1870231;75;21189;-69
2021/04/05 12:57:28;;;;;;;7.00;1.50;;;9.80;66.90;;;;;;1875656;75;21151;-69
2021/04/05 12:59:56;;;;;;;6.12;1.98;;;10.20;68.30;;;;;;1875364;74;21111;-68
2021/04/05 13:02:27;;;;;;;7.35;1.67;;;10.90;68.80;;;;;;1875655;74;21150;-68
2021/04/05 13:05:12;;;;;;;4.80;1.60;;;11.30;66.80;;;;;;1876990;75;21149;-68
2021/04/05 13:07:59;;;;;;;10.63;2.20;;;12.00;66.90;;;;;;1873915;74;21102;-69
2021/04/05 13:10:29;;;;;;;7.05;1.90;;;12.50;65.10;;;;;;1842026;76;21155;-69
2021/04/05 13:13:03;;;;;;;9.28;2.27;;;13.10;66.10;;;;;;1875514;74;21206;-69
2021/04/05 13:15:32;;;;;;;7.10;1.65;;;13.70;62.30;;;;;;1874792;75;21118;-68
2021/04/05 13:18:06;;;;;;;7.30;2.20;;;14.10;61.60;;;;;;1873673;74;21174;-69
2021/04/05 13:20:36;;;;;;;5.42;1.85;;;14.20;62.20;;;;;;1874649;75;21166;-69
2021/04/05 13:23:06;;;;;;;10.72;1.72;;;14.40;61.60;;;;;;1873193;74;21631;-68
2021/04/05 13:25:49;;;;;;;7.22;1.95;;;14.30;61.90;;;;;;1878906;74;21150;-68